Latest Weather Observations for Lucas Heights

IDN60801

Issued at 8:32 am EST Monday 1 May 2017 (issued every 30 minutes, with the page automatically refreshed every 10 minutes)

About weather observations | Map of weather stations | Latest weather observations for NSW | Other Formats
Station Details ID: 066023 Name: LUCAS HEIGHTS AWS Lat: -34.05 Lon: 150.98 Height: 140.0 m
Data from the previous 72 hours. | See also: Recent months for locations in New South Wales
Date/Time
EST
Temp
°C
App
Temp
°C
Dew
Point
°C
Rel
Hum
%
Delta-T
°C
Wind Press
QNH
hPa
Press
MSL
hPa
Rain since
9am
mm
Dir  Spd
km/h
Gust
km/h
Spd
kts
Gust
kts
01/08:15am 14.8 14.5 13.2 90 0.9 WNW 7 13 4 7 1019.8 - 0.0
01/08:00am 13.6 12.9 12.0 90 0.9 W 7 13 4 7 1019.8 - 0.0
01/07:45am 12.3 11.4 10.8 90 0.8 W 6 11 3 6 1019.8 - 0.0
01/07:30am 12.0 11.0 10.4 90 0.8 W 6 7 3 4 1019.8 - 0.0
01/07:15am 11.3 9.9 9.7 90 0.8 W 7 11 4 6 1019.8 - 0.0
01/07:00am 11.0 9.2 9.5 90 0.8 W 9 13 5 7 1019.7 - 0.0
01/06:45am 11.5 10.2 9.9 90 0.8 W 7 11 4 6 1019.6 - 0.0
01/06:30am 11.6 10.3 10.0 90 0.8 W 7 11 4 6 1019.6 - 0.0
01/06:15am 12.2 10.7 10.6 90 0.8 W 9 11 5 6 1019.6 - 0.0
01/06:00am 12.5 11.1 11.0 90 0.8 W 9 11 5 6 1019.6 - 0.0
01/05:45am 12.5 11.1 10.9 90 0.8 WNW 9 11 5 6 1019.6 - 0.0
01/05:30am 12.5 10.7 11.0 90 0.8 WNW 11 11 6 6 1019.5 - 0.0
01/05:15am 12.6 11.3 11.1 91 0.8 WNW 9 11 5 6 1019.5 - 0.0
01/05:00am 11.5 10.2 10.0 90 0.8 WNW 7 9 4 5 1019.5 - 0.0
01/04:45am 11.4 10.1 9.9 90 0.8 W 7 9 4 5 1019.4 - 0.0
01/04:30am 11.7 10.4 10.1 90 0.8 W 7 9 4 5 1019.5 - 0.0
01/04:15am 12.0 10.8 10.3 89 0.9 W 7 11 4 6 1019.6 - 0.0
01/04:00am 12.6 11.6 11.0 90 0.8 W 7 11 4 6 1019.6 - 0.0
01/03:45am 12.3 11.2 10.7 90 0.8 W 7 11 4 6 1019.6 - 0.0
01/03:30am 12.0 10.9 10.5 90 0.8 W 7 11 4 6 1019.6 - 0.0
01/03:15am 11.9 10.7 10.3 90 0.8 W 7 11 4 6 1019.7 - 0.0
01/03:00am 12.2 11.3 10.6 90 0.8 W 6 9 3 5 1019.9 - 0.0
01/02:45am 12.1 11.2 10.5 90 0.8 W 6 9 3 5 1020.1 - 0.0
01/02:30am 12.2 11.3 10.6 90 0.8 W 6 7 3 4 1020.3 - 0.0
01/02:15am 12.5 11.7 10.9 90 0.8 W 6 7 3 4 1020.5 - 0.0
01/02:00am 12.5 11.4 10.8 89 0.9 W 7 9 4 5 1020.7 - 0.0
01/01:45am 12.7 11.9 11.1 90 0.8 W 6 9 3 5 1020.8 - 0.0
01/01:30am 12.6 11.8 11.0 90 0.8 W 6 9 3 5 1020.9 - 0.0
01/01:15am 12.4 11.3 10.7 89 0.9 W 7 11 4 6 1020.9 - 0.0
01/01:00am 12.3 11.2 10.7 90 0.8 W 7 9 4 5 1021.0 - 0.0
01/12:45am 12.3 11.2 10.6 89 0.9 W 7 11 4 6 1021.0 - 0.0
01/12:30am 12.3 11.2 10.6 89 0.9 WSW 7 11 4 6 1021.1 - 0.0
01/12:15am 12.2 11.0 10.4 89 0.9 W 7 11 4 6 1021.1 - 0.0
01/12:00am 12.4 10.9 10.6 89 0.9 W 9 13 5 7 1021.1 - 0.0
 
Date/Time
EST
Temp
°C
App
Temp
°C
Dew
Point
°C
Rel
Hum
%
Delta-T
°C
Wind Press
QNH
hPa
Press
MSL
hPa
Rain since
9am
mm
Dir  Spd
km/h
Gust
km/h
Spd
kts
Gust
kts
30/11:45pm 12.8 11.9 11.2 90 0.8 W 7 11 4 6 1020.8 - 0.0
30/11:30pm 12.6 11.5 10.8 89 0.9 W 7 13 4 7 1020.9 - 0.0
30/11:15pm 12.4 10.9 10.6 89 0.9 W 9 11 5 6 1020.9 - 0.0
30/11:00pm 12.4 10.9 10.6 89 0.9 W 9 11 5 6 1020.9 - 0.0
30/10:45pm 12.6 11.5 10.8 89 0.9 WNW 7 9 4 5 1021.0 - 0.0
30/10:30pm 12.6 11.5 10.7 88 1.0 NW 7 7 4 4 1021.1 - 0.0
30/10:15pm 12.7 12.2 10.8 88 1.0 N 4 7 2 4 1021.1 - 0.0
30/10:00pm 12.9 12.1 10.9 88 1.1 NNE 6 7 3 4 1021.2 - 0.0
30/09:45pm 13.1 12.1 11.0 87 1.1 NNE 7 9 4 5 1021.3 - 0.0
30/09:30pm 13.4 12.5 11.2 86 1.2 NNE 7 9 4 5 1021.4 - 0.0
30/09:15pm 13.7 12.8 11.4 86 1.2 NE 7 11 4 6 1021.4 - 0.0
30/09:00pm 13.8 12.6 11.5 86 1.2 NE 9 11 5 6 1021.3 - 0.0
30/08:45pm 14.2 13.1 11.8 85 1.3 NE 9 13 5 7 1021.3 - 0.0
30/08:30pm 14.4 13.7 11.9 85 1.4 ENE 7 11 4 6 1021.3 - 0.0
30/08:15pm 14.5 13.8 11.9 84 1.4 ENE 7 11 4 6 1021.3 - 0.0
30/08:00pm 14.8 13.7 12.1 84 1.5 ENE 9 11 5 6 1021.3 - 0.0
30/07:45pm 14.9 13.8 12.0 83 1.6 E 9 11 5 6 1021.3 - 0.0
30/07:30pm 15.1 14.1 12.2 83 1.6 E 9 11 5 6 1021.3 - 0.0
30/07:15pm 15.2 14.2 12.2 82 1.6 E 9 11 5 6 1021.3 - 0.0
30/07:00pm 15.5 14.5 12.4 82 1.7 E 9 13 5 7 1021.2 - 0.0
30/06:45pm 15.8 14.8 12.4 80 1.9 E 9 13 5 7 1021.2 - 0.0
30/06:30pm 16.2 15.3 12.6 79 2.0 E 9 13 5 7 1021.2 - 0.0
30/06:15pm 16.5 15.7 12.8 79 2.1 E 9 13 5 7 1021.1 - 0.0
30/06:00pm 16.8 16.0 12.9 78 2.2 E 9 13 5 7 1020.9 - 0.0
30/05:45pm 17.0 15.8 12.8 76 2.4 E 11 15 6 8 1020.8 - 0.0
30/05:30pm 17.3 16.4 12.7 74 2.6 E 9 13 5 7 1020.8 - 0.0
30/05:15pm 17.6 16.7 12.7 73 2.7 E 9 15 5 8 1020.7 - 0.0
30/05:00pm 17.9 17.0 12.5 70 3.0 ESE 9 15 5 8 1020.6 - 0.0
30/04:45pm 18.4 17.0 12.1 66 3.5 ESE 11 15 6 8 1020.5 - 0.0
30/04:30pm 18.9 17.5 12.1 64 3.8 ESE 11 15 6 8 1020.5 - 0.0
30/04:15pm 19.2 18.1 12.1 63 4.0 ESE 9 15 5 8 1020.5 - 0.0
30/04:00pm 19.4 18.0 12.3 63 4.0 ESE 11 15 6 8 1020.4 - 0.0
30/03:45pm 19.9 18.6 12.4 62 4.2 ESE 11 17 6 9 1020.4 - 0.0
30/03:30pm 20.3 19.7 12.4 60 4.5 SE 7 17 4 9 1020.4 - 0.0
30/03:15pm 20.0 18.9 12.1 60 4.4 SE 9 17 5 9 1020.5 - 0.0
30/03:00pm 19.8 18.4 12.2 61 4.3 SE 11 17 6 9 1020.6 - 0.0
30/02:45pm 19.5 17.7 12.2 62 4.1 ESE 13 20 7 11 1020.6 - 0.0
30/02:30pm 19.9 18.0 11.9 60 4.5 SE 13 20 7 11 1020.6 - 0.0
30/02:15pm 20.5 18.7 12.0 58 4.8 ESE 13 22 7 12 1020.6 - 0.0
30/02:00pm 20.7 19.6 12.0 57 4.9 ESE 9 17 5 9 1020.7 - 0.0
30/01:45pm 20.7 19.7 12.2 58 4.8 SE 9 17 5 9 1020.8 - 0.0
30/01:30pm 20.4 18.5 11.8 57 4.8 ESE 13 20 7 11 1020.8 - 0.0
30/01:15pm 20.3 18.4 11.8 58 4.8 SE 13 19 7 10 1020.9 - 0.0
30/01:00pm 20.4 18.9 11.8 57 4.8 SE 11 20 6 11 1021.0 - 0.0
30/12:45pm 20.4 18.8 11.6 57 4.9 SE 11 19 6 10 1021.2 - 0.0
30/12:30pm 20.2 18.2 11.4 57 4.9 ESE 13 19 7 10 1021.3 - 0.0
30/12:15pm 20.3 18.2 11.3 56 5.0 SE 13 19 7 10 1021.5 - 0.0
30/12:00pm 20.2 18.5 11.2 56 5.0 SE 11 17 6 9 1021.7 - 0.0
30/11:45am 20.1 18.1 11.4 57 4.8 SSE 13 20 7 11 1021.9 - 0.0
30/11:30am 20.0 18.5 12.0 60 4.5 SSE 11 22 6 12 1022.0 - 0.0
30/11:15am 19.5 17.2 11.7 60 4.3 SE 15 24 8 13 1022.2 - 0.0
30/11:00am 19.5 16.8 11.8 61 4.3 SE 17 24 9 13 1022.3 - 0.0
30/10:45am 19.8 18.0 12.2 61 4.3 SSE 13 24 7 13 1022.4 - 0.0
30/10:30am 19.4 17.6 12.2 63 4.0 SE 13 20 7 11 1022.4 - 0.0
30/10:15am 19.1 16.9 12.2 64 3.9 SE 15 22 8 12 1022.4 - 0.0
30/10:00am 18.9 15.9 12.1 64 3.8 SSE 19 24 10 13 1022.6 - 0.0
30/09:45am 18.7 16.9 12.0 65 3.7 SE 13 24 7 13 1022.6 - 0.0
30/09:30am 18.7 17.0 12.3 66 3.6 SE 13 24 7 13 1022.7 - 0.0
30/09:15am 18.0 16.7 12.6 70 3.0 SSE 11 20 6 11 1022.8 - 0.0
30/09:00am 16.8 16.2 12.2 74 2.5 SE 7 15 4 8 1022.9 - 0.0
30/08:45am 16.7 15.9 11.8 73 2.7 SSE 7 15 4 8 1022.9 - 0.0
30/08:30am 16.5 15.3 11.6 73 2.7 SSE 9 17 5 9 1022.9 - 0.0
30/08:15am 16.3 14.6 11.3 72 2.7 SSE 11 17 6 9 1022.8 - 0.0
30/08:00am 16.1 14.0 11.0 72 2.7 SSE 13 17 7 9 1022.7 - 0.0
30/07:45am 16.4 15.0 11.0 70 2.9 SSE 9 17 5 9 1022.6 - 0.0
30/07:30am 15.7 14.1 11.5 76 2.3 SSE 11 17 6 9 1022.5 - 0.0
30/07:15am 14.4 12.5 10.6 78 2.0 S 11 17 6 9 1022.4 - 0.0
30/07:00am 14.1 12.5 10.2 77 2.0 S 9 11 5 6 1022.3 - 0.0
30/06:45am 14.2 12.2 10.0 76 2.2 SSW 11 15 6 8 1022.1 - 0.0
30/06:30am 15.0 13.0 10.2 73 2.5 SSW 11 15 6 8 1022.0 - 0.0
30/06:15am 15.7 14.2 10.6 71 2.7 SW 9 15 5 8 1021.9 - 0.0
30/06:00am 16.1 14.3 10.8 71 2.8 SW 11 17 6 9 1021.9 - 0.0
30/05:45am 16.1 14.4 11.1 72 2.7 SSW 11 15 6 8 1021.8 - 0.0
30/05:30am 15.4 13.8 11.6 78 2.1 S 11 15 6 8 1021.7 - 0.0
30/05:15am 15.0 13.4 11.6 80 1.8 S 11 17 6 9 1021.7 - 0.0
30/05:00am 14.9 13.3 11.6 80 1.8 S 11 15 6 8 1021.6 - 0.0
30/04:45am 14.6 12.5 11.3 80 1.8 S 13 15 7 8 1021.5 - 0.0
30/04:30am 14.3 12.0 10.6 78 2.0 SSE 13 17 7 9 1021.5 - 0.0
30/04:15am 14.4 12.6 10.7 78 2.0 SSE 11 17 6 9 1021.5 - 0.0
30/04:00am 13.9 11.4 9.8 76 2.1 S 13 17 7 9 1021.3 - 0.0
30/03:45am 14.2 12.2 10.0 76 2.2 S 11 15 6 8 1021.3 - 0.0
30/03:30am 13.9 11.1 10.0 77 2.0 S 15 17 8 9 1021.2 - 0.0
30/03:15am 13.1 10.5 9.4 78 1.9 S 13 17 7 9 1021.2 - 0.0
30/03:00am 13.1 10.9 9.2 77 2.0 SSW 11 17 6 9 1021.1 - 0.0
30/02:45am 13.3 10.6 9.0 75 2.2 SSW 13 17 7 9 1021.1 - 0.0
30/02:30am 13.7 10.7 9.2 74 2.3 SSW 15 20 8 11 1021.1 - 0.0
30/02:15am 13.7 10.4 9.5 76 2.2 SSW 17 20 9 11 1021.2 - 0.0
30/02:00am 13.3 10.3 9.2 76 2.1 SSW 15 20 8 11 1021.3 - 0.0
30/01:45am 13.5 10.1 9.1 75 2.2 SSW 17 20 9 11 1021.3 - 0.0
30/01:30am 14.0 10.7 9.4 74 2.4 SSW 17 20 9 11 1021.3 - 0.0
30/01:15am 13.8 10.5 9.7 76 2.1 SW 17 20 9 11 1021.4 - 0.0
30/01:00am 13.7 10.6 10.3 80 1.8 SSW 17 20 9 11 1021.4 - 0.0
30/12:45am 13.0 9.9 10.2 83 1.5 SSW 17 20 9 11 1021.5 - 0.0
30/12:30am 12.7 9.3 10.4 86 1.2 SSW 19 24 10 13 1021.5 - 0.0
30/12:15am 12.1 8.8 9.4 83 1.4 SSW 17 19 9 10 1021.5 - 0.0
30/12:00am 12.7 9.9 10.0 84 1.4 SSW 15 19 8 10 1021.5 - 0.0
 
Date/Time
EST
Temp
°C
App
Temp
°C
Dew
Point
°C
Rel
Hum
%
Delta-T
°C
Wind Press
QNH
hPa
Press
MSL
hPa
Rain since
9am
mm
Dir  Spd
km/h
Gust
km/h
Spd
kts
Gust
kts
29/11:45pm 13.2 10.9 10.4 83 1.5 SSW 13 17 7 9 1021.5 - 0.0
29/11:30pm 13.5 11.3 10.7 83 1.5 S 13 15 7 8 1021.4 - 0.0
29/11:15pm 13.5 11.2 10.6 82 1.5 S 13 15 7 8 1021.4 - 0.0
29/11:00pm 13.6 11.3 10.6 82 1.6 S 13 15 7 8 1021.4 - 0.0
29/10:45pm 13.8 11.5 10.6 81 1.7 S 13 15 7 8 1021.3 - 0.0
29/10:30pm 14.2 12.3 10.6 79 1.9 S 11 15 6 8 1021.3 - 0.0
29/10:15pm 15.0 13.2 11.0 77 2.1 S 11 13 6 7 1021.4 - 0.0
29/10:00pm 15.5 14.2 11.4 76 2.2 S 9 11 5 6 1021.4 - 0.0
29/09:45pm 15.5 13.9 11.4 76 2.2 S 11 13 6 7 1021.4 - 0.0
29/09:30pm 15.4 14.1 11.4 77 2.2 S 9 11 5 6 1021.3 - 0.0
29/09:15pm 15.1 13.8 11.3 78 2.0 SSE 9 11 5 6 1021.2 - 0.0
29/09:00pm 14.8 13.5 11.1 78 2.0 SSE 9 11 5 6 1021.1 - 0.0
29/08:45pm 14.6 12.8 10.9 78 2.0 SSE 11 13 6 7 1021.0 - 0.0
29/08:30pm 14.6 12.8 10.7 77 2.1 SSE 11 13 6 7 1021.0 - 0.0
29/08:15pm 14.8 13.0 10.8 77 2.1 SSE 11 13 6 7 1020.9 - 0.0
29/08:00pm 14.9 13.1 10.8 76 2.2 SSE 11 15 6 8 1020.8 - 0.0
29/07:45pm 15.2 13.0 10.9 75 2.3 SSE 13 19 7 10 1020.7 - 0.0
29/07:30pm 15.4 12.9 11.0 75 2.4 SSE 15 17 8 9 1020.6 - 0.0
29/07:15pm 15.5 13.0 11.0 74 2.4 SSE 15 17 8 9 1020.7 - 0.0
29/07:00pm 15.7 13.2 10.9 73 2.6 SSE 15 17 8 9 1020.6 - 0.0
29/06:45pm 16.0 13.9 11.0 72 2.7 SE 13 17 7 9 1020.4 - 0.0
29/06:30pm 15.9 13.7 10.8 71 2.7 SE 13 19 7 10 1020.2 - 0.0
29/06:15pm 16.0 13.7 10.6 70 2.9 SSE 13 17 7 9 1019.9 - 0.0
29/06:00pm 16.2 13.9 10.5 69 3.0 SSE 13 19 7 10 1019.8 - 0.0
29/05:45pm 16.5 14.6 10.5 67 3.2 SSE 11 17 6 9 1019.5 - 0.0
29/05:30pm 16.8 14.5 10.4 66 3.4 SSE 13 17 7 9 1019.4 - 0.0
29/05:15pm 17.1 14.4 10.3 64 3.6 SSE 15 19 8 10 1019.2 - 0.0
29/05:00pm 17.7 15.7 10.2 61 4.0 SSE 11 17 6 9 1019.0 - 0.0
29/04:45pm 18.2 15.7 9.8 58 4.5 SSE 13 20 7 11 1018.9 - 0.0
29/04:30pm 18.6 15.6 9.3 54 4.9 SSE 15 22 8 12 1018.7 - 0.0
29/04:15pm 18.8 16.5 8.9 52 5.2 SE 11 17 6 9 1018.6 - 0.0
29/04:00pm 19.2 15.9 7.9 48 5.8 ESE 15 22 8 12 1018.4 - 0.0
29/03:45pm 19.7 16.7 7.8 46 6.2 SE 13 17 7 9 1018.4 - 0.0
29/03:30pm 19.9 17.4 8.0 46 6.2 SSE 11 17 6 9 1018.3 - 0.0
29/03:15pm 19.7 15.9 7.4 45 6.3 SSE 17 26 9 14 1018.2 - 0.0
29/03:00pm 20.0 17.0 7.8 45 6.3 ESE 13 20 7 11 1018.1 - 0.0
29/02:45pm 20.8 19.0 9.4 48 6.1 E 9 15 5 8 1018.1 - 0.0
29/02:30pm 20.8 18.8 10.0 50 5.9 ENE 11 15 6 8 1018.0 - 0.0
29/02:15pm 21.1 19.4 9.8 48 6.1 ENE 9 15 5 8 1017.8 - 0.0
29/02:00pm 21.0 19.8 9.4 47 6.2 NNE 6 11 3 6 1017.8 - 0.0
29/01:45pm 21.1 19.8 9.2 46 6.4 NE 6 13 3 7 1017.9 - 0.0
29/01:30pm 21.0 20.1 9.1 46 6.4 NE 4 11 2 6 1018.0 - 0.0
29/01:15pm 21.2 19.9 9.3 46 6.4 ENE 6 11 3 6 1018.2 - 0.0
29/01:00pm 20.8 20.1 8.7 45 6.4 S 2 7 1 4 1018.4 - 0.0
29/12:45pm 20.6 19.9 8.7 46 6.3 WSW 2 7 1 4 1018.7 - 0.0
29/12:30pm 20.7 19.7 8.9 46 6.3 SSW 4 7 2 4 1019.0 - 0.0
29/12:15pm 20.3 19.3 9.0 48 6.0 E 4 11 2 6 1019.1 - 0.0
29/12:00pm 19.9 19.2 8.7 48 5.9 NNE 2 7 1 4 1019.4 - 0.0
29/11:45am 19.5 18.5 9.0 50 5.5 SSE 4 7 2 4 1019.6 - 0.0
29/11:30am 19.2 18.2 9.0 51 5.4 WSW 4 9 2 5 1019.8 - 0.0
29/11:15am 19.1 18.5 8.9 51 5.4 SW 2 6 1 3 1020.0 - 0.0
29/11:00am 18.6 17.2 8.8 53 5.1 WSW 6 9 3 5 1020.2 - 0.0
29/10:45am 18.4 17.0 8.7 53 5.1 WSW 6 11 3 6 1020.2 - 0.0
29/10:30am 18.0 16.5 8.5 53 4.9 WSW 6 11 3 6 1020.3 - 0.0
29/10:15am 17.7 16.2 8.4 54 4.8 WSW 6 11 3 6 1020.2 - 0.0
29/10:00am 17.2 15.6 8.1 55 4.7 WSW 6 11 3 6 1020.2 - 0.0
29/09:45am 16.6 14.4 7.8 56 4.5 WSW 9 13 5 7 1020.4 - 0.0
29/09:30am 16.2 14.0 7.8 57 4.2 SW 9 15 5 8 1020.4 - 0.0
29/09:15am 15.6 12.9 7.5 58 4.1 SW 11 17 6 9 1020.4 - 0.0
29/09:00am 15.2 12.6 7.6 60 3.8 SW 11 20 6 11 1020.4 - 0.0
29/08:45am 14.5 11.0 7.1 61 3.6 SW 15 22 8 12 1020.4 - 0.0
29/08:30am 13.9 9.6 6.8 62 3.5 SW 19 24 10 13 1020.3 - 0.0
29/08:15am 13.4 9.0 6.7 64 3.2 SW 19 22 10 12 1020.2 - 0.0
29/08:00am 12.7 8.7 6.5 66 3.0 SW 17 22 9 12 1020.1 - 0.0
29/07:45am 11.9 7.8 6.0 67 2.8 SW 17 22 9 12 1020.1 - 0.0
29/07:30am 11.3 7.5 5.7 68 2.6 SW 15 19 8 10 1019.9 - 0.0
29/07:15am 10.8 7.0 5.6 70 2.4 SW 15 19 8 10 1019.9 - 0.0
29/07:00am 10.8 6.9 5.3 69 2.5 SW 15 20 8 11 1019.8 - 0.0
29/06:45am 11.0 6.2 5.7 70 2.5 SW 20 24 11 13 1019.7 - 0.0
29/06:30am 10.5 6.5 5.1 69 2.5 SSW 15 20 8 11 1019.7 - 0.0
29/06:15am 11.0 6.7 5.4 68 2.6 SSW 17 24 9 13 1019.5 - 0.0
29/06:00am 11.1 6.8 5.3 67 2.7 SSW 17 24 9 13 1019.5 - 0.0
29/05:45am 11.5 6.9 5.4 66 2.8 SSW 19 22 10 12 1019.5 - 0.0
29/05:30am 11.3 6.6 5.3 66 2.8 SSW 19 24 10 13 1019.5 - 0.0
29/05:15am 11.1 6.4 5.1 66 2.8 SSW 19 24 10 13 1019.6 - 0.0
29/05:00am 10.9 6.2 5.0 67 2.7 SSW 19 22 10 12 1019.4 - 0.0
29/04:45am 10.7 6.3 4.8 67 2.7 SSW 17 20 9 11 1019.3 - 0.0
29/04:30am 10.6 6.6 4.8 67 2.6 SSW 15 17 8 9 1019.2 - 0.0
29/04:15am 11.0 6.6 5.0 66 2.8 SSW 17 20 9 11 1019.2 - 0.0
29/04:00am 10.8 6.2 5.4 69 2.5 SW 19 20 10 11 1019.1 - 0.0
29/03:45am 9.9 5.9 5.0 71 2.2 SSW 15 19 8 10 1019.2 - 0.0
29/03:30am 10.0 6.0 4.9 70 2.3 SSW 15 20 8 11 1019.2 - 0.0
29/03:15am 10.3 6.3 5.0 69 2.4 SSW 15 19 8 10 1019.2 - 0.0
29/03:00am 10.3 6.0 5.1 70 2.4 SW 17 20 9 11 1019.2 - 0.0
29/02:45am 10.3 6.7 4.9 69 2.5 SW 13 17 7 9 1019.3 - 0.0
29/02:30am 10.9 6.9 5.0 67 2.7 SSW 15 19 8 10 1019.6 - 0.0
29/02:15am 11.4 6.5 5.3 66 2.8 SW 20 22 11 12 1019.7 - 0.0
29/02:00am 11.3 6.4 5.3 66 2.8 SW 20 24 11 13 1019.8 - 0.0
29/01:45am 11.3 7.0 5.3 66 2.8 SW 17 20 9 11 1019.9 - 0.0
29/01:30am 11.6 7.8 5.9 68 2.7 SW 15 19 8 10 1020.1 - 0.0
29/01:15am 10.7 6.7 6.6 76 1.9 SSW 17 20 9 11 1020.2 - 0.0
29/01:00am 10.2 6.6 6.7 79 1.7 SSW 15 20 8 11 1020.2 - 0.0
29/12:45am 10.4 6.9 7.1 80 1.6 SSW 15 19 8 10 1020.2 - 0.0
29/12:30am 10.3 6.8 7.4 82 1.4 SSW 15 19 8 10 1020.4 - 0.0
29/12:15am 10.1 6.6 7.1 81 1.4 SW 15 17 8 9 1020.4 - 0.0
29/12:00am 10.3 6.8 7.4 82 1.4 SW 15 17 8 9 1020.5 - 0.0
 
Date/Time
EST
Temp
°C
App
Temp
°C
Dew
Point
°C
Rel
Hum
%
Delta-T
°C
Wind Press
QNH
hPa
Press
MSL
hPa
Rain since
9am
mm
Dir  Spd
km/h
Gust
km/h
Spd
kts
Gust
kts
28/11:45pm 10.3 6.8 7.4 82 1.4 SW 15 17 8 9 1020.6 - 0.0
28/11:30pm 10.4 6.9 7.2 80 1.5 SW 15 17 8 9 1020.7 - 0.0
28/11:15pm 10.9 7.5 7.5 79 1.6 SW 15 19 8 10 1020.8 - 0.0
28/11:00pm 11.2 7.1 7.7 79 1.7 SW 19 20 10 11 1021.0 - 0.0
28/10:45pm 11.6 7.6 8.1 79 1.7 SW 19 20 10 11 1021.1 - 0.0
28/10:30pm 11.4 7.3 8.0 79 1.7 WSW 19 20 10 11 1021.1 - 0.0
28/10:15pm 11.8 8.5 7.9 77 1.9 WSW 15 19 8 10 1021.2 - 0.0
28/10:00pm 12.6 9.6 9.1 79 1.8 WSW 15 17 8 9 1021.2 - 0.0
28/09:45pm 11.4 9.0 8.6 83 1.4 W 11 13 6 7 1021.2 - 0.0
28/09:30pm 10.8 9.2 8.0 83 1.4 W 6 11 3 6 1021.2 - 0.0
28/09:15pm 10.8 10.3 7.9 82 1.4 CALM 0 0 0 0 1021.2 - 0.0
28/09:00pm 10.9 10.0 7.8 81 1.5 S 2 4 1 2 1021.1 - 0.0
28/08:45pm 11.2 9.9 7.8 79 1.7 S 4 6 2 3 1021.1 - 0.0
28/08:30pm 11.5 9.9 7.8 78 1.8 SSE 6 7 3 4 1020.9 - 0.0
28/08:15pm 12.1 10.4 8.2 77 1.9 SE 7 9 4 5 1020.9 - 0.0
28/08:00pm 12.2 10.4 8.0 75 2.1 SSE 7 9 4 5 1021.0 - 0.0
28/07:45pm 12.9 11.2 8.3 73 2.3 SE 7 9 4 5 1021.0 - 0.0
28/07:30pm 13.1 11.0 8.3 72 2.4 SE 9 11 5 6 1020.9 - 0.0
28/07:15pm 13.3 11.2 8.4 72 2.5 SE 9 11 5 6 1020.8 - 0.0
28/07:00pm 13.3 11.2 8.2 71 2.5 SSE 9 11 5 6 1020.8 - 0.0
28/06:45pm 13.4 11.3 8.1 70 2.6 SSE 9 11 5 6 1020.7 - 0.0
28/06:30pm 13.8 11.7 8.1 68 2.9 SSE 9 11 5 6 1020.6 - 0.0
28/06:15pm 14.2 11.7 8.3 67 3.0 SSE 11 11 6 6 1020.5 - 0.0
28/06:00pm 14.3 11.8 8.3 67 3.0 SSE 11 11 6 6 1020.4 - 0.0
28/05:45pm 14.5 12.0 8.2 66 3.2 SSE 11 11 6 6 1020.4 - 0.0
28/05:30pm 15.1 12.6 8.3 64 3.4 SSE 11 13 6 7 1020.3 - 0.0
28/05:15pm 15.6 13.1 8.2 61 3.8 SSE 11 15 6 8 1020.3 - 0.0
28/05:00pm 16.2 13.3 8.1 58 4.1 SSE 13 17 7 9 1020.2 - 0.0
28/04:45pm 16.8 13.9 8.0 56 4.5 SSE 13 17 7 9 1020.2 - 0.0
28/04:30pm 17.3 14.3 7.8 53 4.8 SSE 13 15 7 8 1020.2 - 0.0
28/04:15pm 17.8 15.2 7.6 51 5.2 SE 11 15 6 8 1020.2 - 0.0
28/04:00pm 17.8 15.1 7.5 51 5.2 SE 11 15 6 8 1020.2 - 0.0
28/03:45pm 18.0 15.6 7.2 49 5.5 SE 9 15 5 8 1020.2 - 0.0
28/03:30pm 18.5 16.4 6.8 46 5.9 SE 7 15 4 8 1020.1 - 0.0
28/03:15pm 18.6 16.5 6.5 45 6.1 SE 7 11 4 6 1020.0 - 0.0
28/03:00pm 18.6 15.7 6.3 44 6.1 SE 11 17 6 9 1020.0 - 0.0
28/02:45pm 19.3 16.8 6.7 44 6.4 SSE 9 17 5 9 1020.0 - 0.0
28/02:30pm 19.3 17.2 6.7 44 6.4 SE 7 15 4 8 1020.0 - 0.0
28/02:15pm 19.2 17.0 6.3 43 6.5 SSE 7 15 4 8 1020.1 - 0.0
28/02:00pm 19.2 16.8 6.8 44 6.3 SSE 9 17 5 9 1020.1 - 0.0
28/01:45pm 18.9 16.3 6.2 43 6.3 SE 9 19 5 10 1020.1 - 0.0
28/01:30pm 18.7 15.6 5.6 42 6.4 SE 11 15 6 8 1020.3 - 0.0
28/01:15pm 18.4 15.6 5.2 42 6.4 SSE 9 15 5 8 1020.4 - 0.0
28/01:00pm 18.6 15.9 5.6 42 6.4 SSE 9 17 5 9 1020.7 - 0.0
28/12:45pm 18.6 15.5 5.5 42 6.4 SSE 11 19 6 10 1020.9 - 0.0
28/12:30pm 18.5 15.9 6.2 44 6.1 SSE 9 19 5 10 1021.0 - 0.0
28/12:15pm 18.3 16.2 6.6 46 5.9 SSW 7 15 4 8 1021.3 - 0.0
28/12:00pm 18.1 16.0 6.7 47 5.7 SSE 7 17 4 9 1021.4 - 0.0
28/11:45am 18.2 15.8 6.9 47 5.7 SSE 9 19 5 10 1021.7 - 0.0
28/11:30am 17.9 15.6 7.5 50 5.3 S 9 15 5 8 1021.9 - 0.0
28/11:15am 17.2 14.9 7.5 53 4.9 WSW 9 17 5 9 1022.0 - 0.0
28/11:00am 16.9 14.6 7.5 54 4.7 WSW 9 15 5 8 1022.2 - 0.0
28/10:45am 16.7 14.8 7.4 54 4.7 SW 7 15 4 8 1022.4 - 0.0
28/10:30am 16.6 14.3 7.5 55 4.6 SW 9 15 5 8 1022.4 - 0.0
28/10:15am 15.9 13.2 7.2 56 4.3 SW 11 17 6 9 1022.4 - 0.0
28/10:00am 15.2 12.3 6.5 56 4.3 WSW 11 15 6 8 1022.5 - 0.0
28/09:45am 14.9 12.0 6.3 56 4.2 SW 11 17 6 9 1022.5 - 0.0
28/09:30am 14.4 11.4 5.9 56 4.1 SW 11 19 6 10 1022.4 - 0.0
28/09:15am 13.8 10.7 5.4 57 4.0 SW 11 17 6 9 1022.5 - 0.0
28/09:00am 12.9 9.6 4.6 57 3.8 SW 11 19 6 10 1022.4 - 0.0
28/08:45am 12.4 9.1 4.4 58 3.7 SW 11 17 6 9 1022.3 - 0.0

Other Formats:

Comma delimited format used in spreadsheet applications
http://www.bom.gov.au/fwo/IDN60801/IDN60801.95757.axf

JavaScript Object Notation format (JSON) in row-major order
http://www.bom.gov.au/fwo/IDN60801/IDN60801.95757.json